sensor_id;sensor_type;location;lat;lon;timestamp;P1;durP1;ratioP1;P2;durP2;ratioP2
44893;SDS011;30625;52.206;21.030;2022-12-05T00:02:19;28.67;;;15.55;;
44893;SDS011;30625;52.206;21.030;2022-12-05T00:04:45;26.08;;;12.93;;
44893;SDS011;30625;52.206;21.030;2022-12-05T00:07:10;29.95;;;15.98;;
44893;SDS011;30625;52.206;21.030;2022-12-05T00:09:36;31.75;;;16.30;;
44893;SDS011;30625;52.206;21.030;2022-12-05T00:12:02;25.65;;;14.25;;
44893;SDS011;30625;52.206;21.030;2022-12-05T00:14:28;27.25;;;14.77;;
44893;SDS011;30625;52.206;21.030;2022-12-05T00:16:54;28.48;;;13.98;;
44893;SDS011;30625;52.206;21.030;2022-12-05T00:19:19;28.60;;;15.73;;
44893;SDS011;30625;52.206;21.030;2022-12-05T00:21:45;25.85;;;13.60;;
44893;SDS011;30625;52.206;21.030;2022-12-05T00:24:12;30.40;;;16.25;;
44893;SDS011;30625;52.206;21.030;2022-12-05T00:26:40;31.98;;;15.82;;
44893;SDS011;30625;52.206;21.030;2022-12-05T00:29:06;28.00;;;14.90;;
44893;SDS011;30625;52.206;21.030;2022-12-05T00:31:31;28.90;;;15.63;;
44893;SDS011;30625;52.206;21.030;2022-12-05T00:34:00;29.70;;;15.40;;
44893;SDS011;30625;52.206;21.030;2022-12-05T00:36:28;27.00;;;14.02;;
44893;SDS011;30625;52.206;21.030;2022-12-05T00:38:57;27.42;;;15.25;;
44893;SDS011;30625;52.206;21.030;2022-12-05T00:41:24;33.95;;;16.08;;
44893;SDS011;30625;52.206;21.030;2022-12-05T00:43:52;27.08;;;14.25;;
44893;SDS011;30625;52.206;21.030;2022-12-05T00:46:22;31.33;;;16.50;;
44893;SDS011;30625;52.206;21.030;2022-12-05T00:48:49;27.33;;;14.40;;
44893;SDS011;30625;52.206;21.030;2022-12-05T00:51:18;30.45;;;15.68;;
44893;SDS011;30625;52.206;21.030;2022-12-05T00:53:47;27.02;;;14.88;;
44893;SDS011;30625;52.206;21.030;2022-12-05T00:56:13;24.95;;;13.95;;
44893;SDS011;30625;52.206;21.030;2022-12-05T00:58:41;26.63;;;14.18;;
44893;SDS011;30625;52.206;21.030;2022-12-05T01:01:12;28.80;;;14.32;;
44893;SDS011;30625;52.206;21.030;2022-12-05T01:03:38;29.98;;;15.25;;
44893;SDS011;30625;52.206;21.030;2022-12-05T01:06:04;23.70;;;12.32;;
44893;SDS011;30625;52.206;21.030;2022-12-05T01:08:31;26.83;;;14.15;;
44893;SDS011;30625;52.206;21.030;2022-12-05T01:10:58;28.92;;;13.70;;
44893;SDS011;30625;52.206;21.030;2022-12-05T01:13:24;28.55;;;14.60;;
44893;SDS011;30625;52.206;21.030;2022-12-05T01:15:51;27.98;;;14.52;;
44893;SDS011;30625;52.206;21.030;2022-12-05T01:18:18;30.73;;;14.45;;
44893;SDS011;30625;52.206;21.030;2022-12-05T01:20:44;28.52;;;15.13;;
44893;SDS011;30625;52.206;21.030;2022-12-05T01:23:10;25.80;;;14.18;;
44893;SDS011;30625;52.206;21.030;2022-12-05T01:25:40;28.15;;;14.85;;
44893;SDS011;30625;52.206;21.030;2022-12-05T01:28:07;28.00;;;14.93;;
44893;SDS011;30625;52.206;21.030;2022-12-05T01:30:36;30.90;;;15.82;;
44893;SDS011;30625;52.206;21.030;2022-12-05T01:33:06;30.80;;;15.57;;
44893;SDS011;30625;52.206;21.030;2022-12-05T01:37:59;26.95;;;13.75;;
44893;SDS011;30625;52.206;21.030;2022-12-05T01:42:51;27.73;;;15.38;;
44893;SDS011;30625;52.206;21.030;2022-12-05T01:45:18;26.35;;;14.68;;
44893;SDS011;30625;52.206;21.030;2022-12-05T01:47:55;29.92;;;14.68;;
44893;SDS011;30625;52.206;21.030;2022-12-05T01:50:21;28.27;;;15.77;;
44893;SDS011;30625;52.206;21.030;2022-12-05T01:52:47;27.48;;;14.55;;
44893;SDS011;30625;52.206;21.030;2022-12-05T01:55:13;30.13;;;16.40;;
44893;SDS011;30625;52.206;21.030;2022-12-05T01:57:42;30.35;;;14.98;;
44893;SDS011;30625;52.206;21.030;2022-12-05T02:00:11;34.90;;;16.80;;
44893;SDS011;30625;52.206;21.030;2022-12-05T02:02:41;29.65;;;16.15;;
44893;SDS011;30625;52.206;21.030;2022-12-05T02:05:14;31.23;;;15.18;;
44893;SDS011;30625;52.206;21.030;2022-12-05T02:07:49;29.23;;;16.27;;
44893;SDS011;30625;52.206;21.030;2022-12-05T02:10:16;33.20;;;16.58;;
44893;SDS011;30625;52.206;21.030;2022-12-05T02:12:42;32.45;;;17.52;;
44893;SDS011;30625;52.206;21.030;2022-12-05T02:15:30;30.67;;;16.08;;
44893;SDS011;30625;52.206;21.030;2022-12-05T02:35:15;33.63;;;15.75;;
44893;SDS011;30625;52.206;21.030;2022-12-05T02:46:01;25.45;;;14.25;;
44893;SDS011;30625;52.206;21.030;2022-12-05T02:48:32;26.10;;;15.32;;
44893;SDS011;30625;52.206;21.030;2022-12-05T02:50:59;24.73;;;12.93;;
44893;SDS011;30625;52.206;21.030;2022-12-05T02:53:27;25.13;;;14.05;;
44893;SDS011;30625;52.206;21.030;2022-12-05T02:55:54;24.65;;;13.32;;
44893;SDS011;30625;52.206;21.030;2022-12-05T02:58:31;24.75;;;12.60;;
44893;SDS011;30625;52.206;21.030;2022-12-05T03:01:00;27.20;;;14.40;;
44893;SDS011;30625;52.206;21.030;2022-12-05T03:03:27;25.52;;;12.82;;
44893;SDS011;30625;52.206;21.030;2022-12-05T03:08:54;23.50;;;12.43;;
44893;SDS011;30625;52.206;21.030;2022-12-05T03:11:25;25.08;;;13.45;;
44893;SDS011;30625;52.206;21.030;2022-12-05T03:13:57;24.00;;;12.55;;
44893;SDS011;30625;52.206;21.030;2022-12-05T03:16:30;24.38;;;12.95;;
44893;SDS011;30625;52.206;21.030;2022-12-05T03:19:02;23.52;;;13.20;;
44893;SDS011;30625;52.206;21.030;2022-12-05T03:21:38;28.40;;;14.88;;
44893;SDS011;30625;52.206;21.030;2022-12-05T03:24:10;24.73;;;13.15;;
44893;SDS011;30625;52.206;21.030;2022-12-05T03:26:45;22.30;;;12.75;;
44893;SDS011;30625;52.206;21.030;2022-12-05T03:29:34;22.13;;;12.57;;
44893;SDS011;30625;52.206;21.030;2022-12-05T03:32:40;24.15;;;13.30;;
44893;SDS011;30625;52.206;21.030;2022-12-05T03:40:31;27.13;;;13.73;;
44893;SDS011;30625;52.206;21.030;2022-12-05T03:48:36;25.65;;;13.95;;
44893;SDS011;30625;52.206;21.030;2022-12-05T03:54:31;22.95;;;12.65;;
44893;SDS011;30625;52.206;21.030;2022-12-05T03:57:02;23.23;;;13.55;;
44893;SDS011;30625;52.206;21.030;2022-12-05T04:02:20;20.52;;;11.98;;
44893;SDS011;30625;52.206;21.030;2022-12-05T04:04:55;19.63;;;11.33;;
44893;SDS011;30625;52.206;21.030;2022-12-05T04:07:28;24.55;;;11.63;;
44893;SDS011;30625;52.206;21.030;2022-12-05T04:09:58;27.73;;;13.77;;
44893;SDS011;30625;52.206;21.030;2022-12-05T04:12:29;22.73;;;13.55;;
44893;SDS011;30625;52.206;21.030;2022-12-05T04:15:01;23.08;;;12.18;;
44893;SDS011;30625;52.206;21.030;2022-12-05T04:17:46;23.55;;;12.48;;
44893;SDS011;30625;52.206;21.030;2022-12-05T04:20:45;23.23;;;12.70;;
44893;SDS011;30625;52.206;21.030;2022-12-05T04:23:24;23.88;;;13.35;;
44893;SDS011;30625;52.206;21.030;2022-12-05T04:28:35;24.83;;;12.70;;
44893;SDS011;30625;52.206;21.030;2022-12-05T04:31:09;21.40;;;12.75;;
44893;SDS011;30625;52.206;21.030;2022-12-05T04:39:11;25.30;;;13.88;;
44893;SDS011;30625;52.206;21.030;2022-12-05T04:41:44;22.63;;;13.00;;
44893;SDS011;30625;52.206;21.030;2022-12-05T04:44:16;23.52;;;13.15;;
44893;SDS011;30625;52.206;21.030;2022-12-05T04:46:44;23.88;;;12.80;;
44893;SDS011;30625;52.206;21.030;2022-12-05T04:49:13;25.13;;;13.82;;
44893;SDS011;30625;52.206;21.030;2022-12-05T04:51:43;22.65;;;12.07;;
44893;SDS011;30625;52.206;21.030;2022-12-05T04:54:17;22.65;;;12.80;;
44893;SDS011;30625;52.206;21.030;2022-12-05T04:56:47;26.23;;;13.18;;
44893;SDS011;30625;52.206;21.030;2022-12-05T04:59:15;21.88;;;12.18;;
44893;SDS011;30625;52.206;21.030;2022-12-05T05:01:45;20.92;;;11.85;;
44893;SDS011;30625;52.206;21.030;2022-12-05T05:04:20;27.35;;;12.68;;
44893;SDS011;30625;52.206;21.030;2022-12-05T05:07:16;21.30;;;11.90;;
44893;SDS011;30625;52.206;21.030;2022-12-05T05:09:42;22.00;;;11.40;;
44893;SDS011;30625;52.206;21.030;2022-12-05T05:12:09;20.83;;;11.23;;
44893;SDS011;30625;52.206;21.030;2022-12-05T05:14:37;23.20;;;11.88;;
44893;SDS011;30625;52.206;21.030;2022-12-05T05:17:03;23.98;;;12.38;;
44893;SDS011;30625;52.206;21.030;2022-12-05T05:19:29;21.35;;;11.82;;
44893;SDS011;30625;52.206;21.030;2022-12-05T05:21:55;20.25;;;10.75;;
44893;SDS011;30625;52.206;21.030;2022-12-05T05:24:21;19.95;;;10.88;;
44893;SDS011;30625;52.206;21.030;2022-12-05T05:26:47;19.88;;;10.82;;
44893;SDS011;30625;52.206;21.030;2022-12-05T05:29:13;22.10;;;10.63;;
44893;SDS011;30625;52.206;21.030;2022-12-05T05:31:40;21.88;;;11.93;;
44893;SDS011;30625;52.206;21.030;2022-12-05T05:34:07;19.40;;;11.18;;
44893;SDS011;30625;52.206;21.030;2022-12-05T05:36:33;25.55;;;11.55;;
44893;SDS011;30625;52.206;21.030;2022-12-05T05:39:00;19.20;;;10.77;;
44893;SDS011;30625;52.206;21.030;2022-12-05T05:41:35;20.15;;;11.55;;
44893;SDS011;30625;52.206;21.030;2022-12-05T05:44:01;21.02;;;11.20;;
44893;SDS011;30625;52.206;21.030;2022-12-05T05:46:29;19.42;;;11.45;;
44893;SDS011;30625;52.206;21.030;2022-12-05T05:48:57;20.40;;;10.98;;
44893;SDS011;30625;52.206;21.030;2022-12-05T05:53:54;20.77;;;10.77;;
44893;SDS011;30625;52.206;21.030;2022-12-05T05:56:20;20.60;;;11.68;;
44893;SDS011;30625;52.206;21.030;2022-12-05T05:58:46;20.65;;;11.70;;
44893;SDS011;30625;52.206;21.030;2022-12-05T06:03:40;21.83;;;11.98;;
44893;SDS011;30625;52.206;21.030;2022-12-05T06:06:10;24.50;;;12.73;;
44893;SDS011;30625;52.206;21.030;2022-12-05T06:08:38;23.48;;;11.82;;
44893;SDS011;30625;52.206;21.030;2022-12-05T06:11:13;20.90;;;11.10;;
44893;SDS011;30625;52.206;21.030;2022-12-05T06:13:40;19.67;;;11.43;;
44893;SDS011;30625;52.206;21.030;2022-12-05T06:16:07;22.00;;;11.18;;
44893;SDS011;30625;52.206;21.030;2022-12-05T06:18:34;17.73;;;9.70;;
44893;SDS011;30625;52.206;21.030;2022-12-05T06:21:01;20.58;;;11.20;;
44893;SDS011;30625;52.206;21.030;2022-12-05T06:23:28;25.30;;;12.85;;
44893;SDS011;30625;52.206;21.030;2022-12-05T06:25:54;20.85;;;10.95;;
44893;SDS011;30625;52.206;21.030;2022-12-05T06:28:24;20.95;;;12.32;;
44893;SDS011;30625;52.206;21.030;2022-12-05T06:30:50;22.48;;;11.57;;
44893;SDS011;30625;52.206;21.030;2022-12-05T06:33:16;22.38;;;12.52;;
44893;SDS011;30625;52.206;21.030;2022-12-05T06:35:42;19.77;;;11.43;;
44893;SDS011;30625;52.206;21.030;2022-12-05T06:38:08;23.63;;;13.25;;
44893;SDS011;30625;52.206;21.030;2022-12-05T06:43:03;21.48;;;12.52;;
44893;SDS011;30625;52.206;21.030;2022-12-05T06:45:29;23.98;;;13.50;;
44893;SDS011;30625;52.206;21.030;2022-12-05T06:47:55;20.75;;;11.32;;
44893;SDS011;30625;52.206;21.030;2022-12-05T06:50:21;22.17;;;12.32;;
44893;SDS011;30625;52.206;21.030;2022-12-05T06:52:47;22.55;;;12.00;;
44893;SDS011;30625;52.206;21.030;2022-12-05T06:55:14;23.98;;;12.90;;
44893;SDS011;30625;52.206;21.030;2022-12-05T06:57:39;22.27;;;11.95;;
44893;SDS011;30625;52.206;21.030;2022-12-05T07:00:05;21.85;;;12.32;;
44893;SDS011;30625;52.206;21.030;2022-12-05T07:02:50;27.15;;;12.73;;
44893;SDS011;30625;52.206;21.030;2022-12-05T07:05:16;22.33;;;12.30;;
44893;SDS011;30625;52.206;21.030;2022-12-05T07:07:42;24.88;;;13.18;;
44893;SDS011;30625;52.206;21.030;2022-12-05T07:10:08;25.10;;;13.27;;
44893;SDS011;30625;52.206;21.030;2022-12-05T07:12:34;26.02;;;13.10;;
44893;SDS011;30625;52.206;21.030;2022-12-05T07:15:00;24.25;;;13.27;;
44893;SDS011;30625;52.206;21.030;2022-12-05T07:17:26;22.27;;;12.32;;
44893;SDS011;30625;52.206;21.030;2022-12-05T07:19:52;23.60;;;12.93;;
44893;SDS011;30625;52.206;21.030;2022-12-05T07:22:18;27.52;;;13.05;;
44893;SDS011;30625;52.206;21.030;2022-12-05T07:24:45;26.08;;;14.07;;
44893;SDS011;30625;52.206;21.030;2022-12-05T07:27:12;26.98;;;13.20;;
44893;SDS011;30625;52.206;21.030;2022-12-05T07:29:39;22.75;;;12.93;;
44893;SDS011;30625;52.206;21.030;2022-12-05T07:32:05;24.77;;;12.68;;
44893;SDS011;30625;52.206;21.030;2022-12-05T07:34:31;24.50;;;12.45;;
44893;SDS011;30625;52.206;21.030;2022-12-05T07:36:57;20.70;;;11.70;;
44893;SDS011;30625;52.206;21.030;2022-12-05T07:39:23;21.77;;;12.70;;
44893;SDS011;30625;52.206;21.030;2022-12-05T07:41:49;26.92;;;13.82;;
44893;SDS011;30625;52.206;21.030;2022-12-05T07:44:15;26.65;;;14.05;;
44893;SDS011;30625;52.206;21.030;2022-12-05T07:46:41;24.90;;;12.25;;
44893;SDS011;30625;52.206;21.030;2022-12-05T07:49:06;25.90;;;12.77;;
44893;SDS011;30625;52.206;21.030;2022-12-05T07:51:32;26.63;;;13.25;;
44893;SDS011;30625;52.206;21.030;2022-12-05T07:53:59;25.00;;;13.13;;
44893;SDS011;30625;52.206;21.030;2022-12-05T07:56:25;23.92;;;12.93;;
44893;SDS011;30625;52.206;21.030;2022-12-05T07:58:51;25.27;;;12.82;;
44893;SDS011;30625;52.206;21.030;2022-12-05T08:01:18;23.42;;;13.02;;
44893;SDS011;30625;52.206;21.030;2022-12-05T08:03:45;24.00;;;12.45;;
44893;SDS011;30625;52.206;21.030;2022-12-05T08:06:13;28.15;;;13.90;;
44893;SDS011;30625;52.206;21.030;2022-12-05T08:08:50;25.90;;;13.18;;
44893;SDS011;30625;52.206;21.030;2022-12-05T08:11:27;27.27;;;13.52;;
44893;SDS011;30625;52.206;21.030;2022-12-05T08:13:55;24.95;;;12.52;;
44893;SDS011;30625;52.206;21.030;2022-12-05T08:16:23;22.52;;;10.95;;
44893;SDS011;30625;52.206;21.030;2022-12-05T08:18:57;23.58;;;13.30;;
44893;SDS011;30625;52.206;21.030;2022-12-05T08:21:25;25.30;;;13.15;;
44893;SDS011;30625;52.206;21.030;2022-12-05T08:23:51;24.50;;;13.23;;
44893;SDS011;30625;52.206;21.030;2022-12-05T08:28:46;22.15;;;12.15;;
44893;SDS011;30625;52.206;21.030;2022-12-05T08:31:16;22.00;;;12.40;;
44893;SDS011;30625;52.206;21.030;2022-12-05T08:33:42;22.90;;;12.73;;
44893;SDS011;30625;52.206;21.030;2022-12-05T08:36:10;25.70;;;12.65;;
44893;SDS011;30625;52.206;21.030;2022-12-05T08:38:37;24.50;;;12.68;;
44893;SDS011;30625;52.206;21.030;2022-12-05T08:41:04;24.42;;;11.82;;
44893;SDS011;30625;52.206;21.030;2022-12-05T08:43:31;27.38;;;13.80;;
44893;SDS011;30625;52.206;21.030;2022-12-05T08:45:57;26.65;;;13.80;;
44893;SDS011;30625;52.206;21.030;2022-12-05T08:50:49;24.00;;;12.82;;
44893;SDS011;30625;52.206;21.030;2022-12-05T08:53:15;27.52;;;13.40;;
44893;SDS011;30625;52.206;21.030;2022-12-05T08:55:41;26.25;;;13.73;;
44893;SDS011;30625;52.206;21.030;2022-12-05T08:58:07;24.02;;;12.55;;
44893;SDS011;30625;52.206;21.030;2022-12-05T09:00:33;27.67;;;14.52;;
44893;SDS011;30625;52.206;21.030;2022-12-05T09:02:59;25.33;;;13.90;;
44893;SDS011;30625;52.206;21.030;2022-12-05T09:05:25;27.73;;;13.48;;
44893;SDS011;30625;52.206;21.030;2022-12-05T09:07:50;25.48;;;13.52;;
44893;SDS011;30625;52.206;21.030;2022-12-05T09:10:17;27.83;;;13.98;;
44893;SDS011;30625;52.206;21.030;2022-12-05T09:15:09;25.50;;;11.77;;
44893;SDS011;30625;52.206;21.030;2022-12-05T09:17:36;24.05;;;12.68;;
44893;SDS011;30625;52.206;21.030;2022-12-05T09:20:03;28.75;;;15.25;;
44893;SDS011;30625;52.206;21.030;2022-12-05T09:22:30;27.10;;;14.05;;
44893;SDS011;30625;52.206;21.030;2022-12-05T09:24:57;32.38;;;15.32;;
44893;SDS011;30625;52.206;21.030;2022-12-05T09:27:24;26.83;;;13.75;;
44893;SDS011;30625;52.206;21.030;2022-12-05T09:29:52;24.77;;;13.25;;
44893;SDS011;30625;52.206;21.030;2022-12-05T09:32:17;25.98;;;13.85;;
44893;SDS011;30625;52.206;21.030;2022-12-05T09:34:43;27.70;;;14.85;;
44893;SDS011;30625;52.206;21.030;2022-12-05T09:37:09;31.38;;;14.07;;
44893;SDS011;30625;52.206;21.030;2022-12-05T09:39:35;26.08;;;12.93;;
44893;SDS011;30625;52.206;21.030;2022-12-05T09:55:45;26.30;;;12.93;;
44893;SDS011;30625;52.206;21.030;2022-12-05T09:58:27;26.92;;;14.65;;
44893;SDS011;30625;52.206;21.030;2022-12-05T10:04:07;27.58;;;13.10;;
44893;SDS011;30625;52.206;21.030;2022-12-05T10:06:40;26.85;;;13.55;;
44893;SDS011;30625;52.206;21.030;2022-12-05T10:17:41;27.15;;;12.60;;
44893;SDS011;30625;52.206;21.030;2022-12-05T10:20:16;27.50;;;13.60;;
44893;SDS011;30625;52.206;21.030;2022-12-05T10:22:55;30.08;;;13.38;;
44893;SDS011;30625;52.206;21.030;2022-12-05T10:25:30;28.25;;;13.45;;
44893;SDS011;30625;52.206;21.030;2022-12-05T10:27:59;31.70;;;15.27;;
44893;SDS011;30625;52.206;21.030;2022-12-05T10:30:28;29.10;;;14.20;;
44893;SDS011;30625;52.206;21.030;2022-12-05T10:32:58;31.70;;;13.50;;
44893;SDS011;30625;52.206;21.030;2022-12-05T10:35:34;28.50;;;14.32;;
44893;SDS011;30625;52.206;21.030;2022-12-05T10:38:11;30.80;;;16.20;;
44893;SDS011;30625;52.206;21.030;2022-12-05T10:41:00;30.83;;;14.30;;
44893;SDS011;30625;52.206;21.030;2022-12-05T10:43:30;29.80;;;14.60;;
44893;SDS011;30625;52.206;21.030;2022-12-05T10:45:57;32.70;;;16.48;;
44893;SDS011;30625;52.206;21.030;2022-12-05T10:48:23;32.92;;;15.27;;
44893;SDS011;30625;52.206;21.030;2022-12-05T10:50:54;32.70;;;14.65;;
44893;SDS011;30625;52.206;21.030;2022-12-05T10:53:54;35.45;;;16.10;;
44893;SDS011;30625;52.206;21.030;2022-12-05T10:59:08;32.40;;;15.80;;
44893;SDS011;30625;52.206;21.030;2022-12-05T11:01:44;30.33;;;15.18;;
44893;SDS011;30625;52.206;21.030;2022-12-05T11:04:20;29.30;;;14.57;;
44893;SDS011;30625;52.206;21.030;2022-12-05T11:06:56;35.00;;;16.50;;
44893;SDS011;30625;52.206;21.030;2022-12-05T11:09:32;32.70;;;15.48;;
44893;SDS011;30625;52.206;21.030;2022-12-05T11:12:05;32.08;;;16.13;;
44893;SDS011;30625;52.206;21.030;2022-12-05T11:14:39;33.22;;;16.08;;
44893;SDS011;30625;52.206;21.030;2022-12-05T11:17:23;32.00;;;16.75;;
44893;SDS011;30625;52.206;21.030;2022-12-05T11:19:51;32.22;;;16.55;;
44893;SDS011;30625;52.206;21.030;2022-12-05T11:22:19;30.98;;;14.88;;
44893;SDS011;30625;52.206;21.030;2022-12-05T11:24:57;34.50;;;15.68;;
44893;SDS011;30625;52.206;21.030;2022-12-05T11:27:30;28.17;;;14.98;;
44893;SDS011;30625;52.206;21.030;2022-12-05T11:32:29;33.90;;;16.50;;
44893;SDS011;30625;52.206;21.030;2022-12-05T11:35:17;36.22;;;15.57;;
44893;SDS011;30625;52.206;21.030;2022-12-05T11:38:00;36.65;;;15.95;;
44893;SDS011;30625;52.206;21.030;2022-12-05T11:40:31;32.70;;;15.30;;
44893;SDS011;30625;52.206;21.030;2022-12-05T11:54:25;34.25;;;16.25;;
44893;SDS011;30625;52.206;21.030;2022-12-05T11:57:09;35.38;;;16.90;;
44893;SDS011;30625;52.206;21.030;2022-12-05T12:07:50;36.47;;;16.35;;
44893;SDS011;30625;52.206;21.030;2022-12-05T12:10:27;39.47;;;16.60;;
44893;SDS011;30625;52.206;21.030;2022-12-05T12:13:04;34.25;;;16.80;;
44893;SDS011;30625;52.206;21.030;2022-12-05T12:15:45;33.45;;;16.33;;
44893;SDS011;30625;52.206;21.030;2022-12-05T12:18:42;47.83;;;18.35;;
44893;SDS011;30625;52.206;21.030;2022-12-05T12:24:02;34.33;;;16.48;;
44893;SDS011;30625;52.206;21.030;2022-12-05T12:34:49;35.75;;;16.73;;
44893;SDS011;30625;52.206;21.030;2022-12-05T12:51:52;35.60;;;16.02;;
44893;SDS011;30625;52.206;21.030;2022-12-05T12:57:31;36.78;;;16.73;;
44893;SDS011;30625;52.206;21.030;2022-12-05T13:02:49;37.30;;;16.98;;
44893;SDS011;30625;52.206;21.030;2022-12-05T13:08:04;41.72;;;16.50;;
44893;SDS011;30625;52.206;21.030;2022-12-05T13:10:31;35.03;;;15.98;;
44893;SDS011;30625;52.206;21.030;2022-12-05T13:13:02;35.92;;;15.85;;
44893;SDS011;30625;52.206;21.030;2022-12-05T13:15:39;37.67;;;16.23;;
44893;SDS011;30625;52.206;21.030;2022-12-05T13:18:13;39.40;;;17.85;;
44893;SDS011;30625;52.206;21.030;2022-12-05T13:20:41;36.88;;;16.60;;
44893;SDS011;30625;52.206;21.030;2022-12-05T13:23:11;37.38;;;15.88;;
44893;SDS011;30625;52.206;21.030;2022-12-05T13:25:38;35.60;;;16.88;;
44893;SDS011;30625;52.206;21.030;2022-12-05T13:28:06;35.10;;;17.60;;
44893;SDS011;30625;52.206;21.030;2022-12-05T13:30:49;37.58;;;16.48;;
44893;SDS011;30625;52.206;21.030;2022-12-05T13:33:32;38.70;;;17.77;;
44893;SDS011;30625;52.206;21.030;2022-12-05T13:36:08;35.05;;;16.40;;
44893;SDS011;30625;52.206;21.030;2022-12-05T13:39:04;34.65;;;16.55;;
44893;SDS011;30625;52.206;21.030;2022-12-05T13:42:04;40.22;;;19.10;;
44893;SDS011;30625;52.206;21.030;2022-12-05T13:44:52;43.50;;;18.92;;
44893;SDS011;30625;52.206;21.030;2022-12-05T13:50:15;34.90;;;16.38;;
44893;SDS011;30625;52.206;21.030;2022-12-05T13:52:57;37.92;;;16.65;;
44893;SDS011;30625;52.206;21.030;2022-12-05T13:55:56;39.20;;;17.58;;
44893;SDS011;30625;52.206;21.030;2022-12-05T14:00:49;37.95;;;18.58;;
44893;SDS011;30625;52.206;21.030;2022-12-05T14:05:56;36.28;;;17.85;;
44893;SDS011;30625;52.206;21.030;2022-12-05T14:15:54;42.75;;;19.58;;
44893;SDS011;30625;52.206;21.030;2022-12-05T14:18:43;36.92;;;17.38;;
44893;SDS011;30625;52.206;21.030;2022-12-05T14:29:51;38.22;;;16.60;;
44893;SDS011;30625;52.206;21.030;2022-12-05T14:32:44;37.00;;;16.50;;
44893;SDS011;30625;52.206;21.030;2022-12-05T14:35:18;37.78;;;17.88;;
44893;SDS011;30625;52.206;21.030;2022-12-05T14:38:04;40.35;;;16.40;;
44893;SDS011;30625;52.206;21.030;2022-12-05T14:40:35;46.28;;;18.90;;
44893;SDS011;30625;52.206;21.030;2022-12-05T14:43:06;40.40;;;16.83;;
44893;SDS011;30625;52.206;21.030;2022-12-05T14:50:52;42.30;;;20.02;;
44893;SDS011;30625;52.206;21.030;2022-12-05T14:53:21;36.85;;;18.77;;
44893;SDS011;30625;52.206;21.030;2022-12-05T15:06:34;37.67;;;17.73;;
44893;SDS011;30625;52.206;21.030;2022-12-05T15:09:09;43.65;;;19.92;;
44893;SDS011;30625;52.206;21.030;2022-12-05T15:11:53;37.97;;;18.95;;
44893;SDS011;30625;52.206;21.030;2022-12-05T15:14:21;44.10;;;18.58;;
44893;SDS011;30625;52.206;21.030;2022-12-05T15:16:50;37.83;;;18.02;;
44893;SDS011;30625;52.206;21.030;2022-12-05T15:19:22;41.28;;;17.77;;
44893;SDS011;30625;52.206;21.030;2022-12-05T15:21:56;38.72;;;18.77;;
44893;SDS011;30625;52.206;21.030;2022-12-05T15:24:25;39.03;;;18.23;;
44893;SDS011;30625;52.206;21.030;2022-12-05T15:26:51;40.92;;;19.55;;
44893;SDS011;30625;52.206;21.030;2022-12-05T15:31:48;40.47;;;19.65;;
44893;SDS011;30625;52.206;21.030;2022-12-05T15:36:56;36.30;;;18.35;;
44893;SDS011;30625;52.206;21.030;2022-12-05T15:42:17;38.67;;;18.38;;
44893;SDS011;30625;52.206;21.030;2022-12-05T15:44:44;36.05;;;16.85;;
44893;SDS011;30625;52.206;21.030;2022-12-05T15:47:22;37.60;;;18.65;;
44893;SDS011;30625;52.206;21.030;2022-12-05T15:49:49;39.63;;;18.77;;
44893;SDS011;30625;52.206;21.030;2022-12-05T15:52:50;40.30;;;18.73;;
44893;SDS011;30625;52.206;21.030;2022-12-05T15:55:12;39.72;;;19.92;;
44893;SDS011;30625;52.206;21.030;2022-12-05T15:57:49;39.45;;;17.80;;
44893;SDS011;30625;52.206;21.030;2022-12-05T16:00:23;42.53;;;19.30;;
44893;SDS011;30625;52.206;21.030;2022-12-05T16:07:55;45.85;;;20.02;;
44893;SDS011;30625;52.206;21.030;2022-12-05T16:10:21;42.72;;;20.08;;
44893;SDS011;30625;52.206;21.030;2022-12-05T16:12:48;42.30;;;19.48;;
44893;SDS011;30625;52.206;21.030;2022-12-05T16:15:20;43.53;;;19.02;;
44893;SDS011;30625;52.206;21.030;2022-12-05T16:17:55;38.97;;;18.55;;
44893;SDS011;30625;52.206;21.030;2022-12-05T16:20:27;40.38;;;19.08;;
44893;SDS011;30625;52.206;21.030;2022-12-05T16:23:02;40.38;;;20.42;;
44893;SDS011;30625;52.206;21.030;2022-12-05T16:25:45;43.13;;;19.95;;
44893;SDS011;30625;52.206;21.030;2022-12-05T16:28:13;44.90;;;20.70;;
44893;SDS011;30625;52.206;21.030;2022-12-05T16:30:51;41.22;;;19.05;;
44893;SDS011;30625;52.206;21.030;2022-12-05T16:33:22;41.42;;;18.65;;
44893;SDS011;30625;52.206;21.030;2022-12-05T16:35:48;48.67;;;21.13;;
44893;SDS011;30625;52.206;21.030;2022-12-05T16:40:54;41.80;;;19.67;;
44893;SDS011;30625;52.206;21.030;2022-12-05T16:45:58;47.05;;;20.67;;
44893;SDS011;30625;52.206;21.030;2022-12-05T16:48:45;47.35;;;20.25;;
44893;SDS011;30625;52.206;21.030;2022-12-05T16:51:39;47.42;;;21.23;;
44893;SDS011;30625;52.206;21.030;2022-12-05T16:54:09;47.50;;;20.60;;
44893;SDS011;30625;52.206;21.030;2022-12-05T16:56:35;46.35;;;20.17;;
44893;SDS011;30625;52.206;21.030;2022-12-05T16:59:04;45.05;;;21.20;;
44893;SDS011;30625;52.206;21.030;2022-12-05T17:01:34;40.60;;;19.20;;
44893;SDS011;30625;52.206;21.030;2022-12-05T17:04:00;45.85;;;20.75;;
44893;SDS011;30625;52.206;21.030;2022-12-05T17:06:26;45.53;;;19.65;;
44893;SDS011;30625;52.206;21.030;2022-12-05T17:08:52;47.47;;;20.50;;
44893;SDS011;30625;52.206;21.030;2022-12-05T17:11:22;43.65;;;19.42;;
44893;SDS011;30625;52.206;21.030;2022-12-05T17:13:54;44.08;;;20.30;;
44893;SDS011;30625;52.206;21.030;2022-12-05T17:16:22;45.10;;;19.65;;
44893;SDS011;30625;52.206;21.030;2022-12-05T17:18:51;40.78;;;18.85;;
44893;SDS011;30625;52.206;21.030;2022-12-05T17:21:24;44.75;;;20.05;;
44893;SDS011;30625;52.206;21.030;2022-12-05T17:23:53;39.95;;;20.52;;
44893;SDS011;30625;52.206;21.030;2022-12-05T17:26:20;40.13;;;19.50;;
44893;SDS011;30625;52.206;21.030;2022-12-05T17:28:46;41.58;;;19.80;;
44893;SDS011;30625;52.206;21.030;2022-12-05T17:31:16;39.28;;;19.23;;
44893;SDS011;30625;52.206;21.030;2022-12-05T17:33:44;41.10;;;19.98;;
44893;SDS011;30625;52.206;21.030;2022-12-05T17:36:11;43.53;;;20.23;;
44893;SDS011;30625;52.206;21.030;2022-12-05T17:38:37;38.00;;;19.25;;
44893;SDS011;30625;52.206;21.030;2022-12-05T17:41:03;35.42;;;18.15;;
44893;SDS011;30625;52.206;21.030;2022-12-05T17:43:29;37.00;;;18.38;;
44893;SDS011;30625;52.206;21.030;2022-12-05T17:45:55;38.15;;;18.23;;
44893;SDS011;30625;52.206;21.030;2022-12-05T17:48:23;42.72;;;19.02;;
44893;SDS011;30625;52.206;21.030;2022-12-05T17:50:50;39.78;;;19.42;;
44893;SDS011;30625;52.206;21.030;2022-12-05T17:53:17;36.00;;;17.75;;
44893;SDS011;30625;52.206;21.030;2022-12-05T17:55:44;35.47;;;18.30;;
44893;SDS011;30625;52.206;21.030;2022-12-05T17:58:12;39.72;;;18.10;;
44893;SDS011;30625;52.206;21.030;2022-12-05T18:00:39;42.33;;;19.80;;
44893;SDS011;30625;52.206;21.030;2022-12-05T18:03:05;41.35;;;19.50;;
44893;SDS011;30625;52.206;21.030;2022-12-05T18:05:33;34.63;;;17.80;;